createdAt,value
2017-10-08T00:00:46.740Z,99.90
2017-10-08T00:03:13.038Z,99.90
2017-10-08T00:05:40.122Z,99.90
2017-10-08T00:08:07.171Z,99.90
2017-10-08T00:10:33.532Z,99.90
2017-10-08T00:13:00.613Z,99.90
2017-10-08T00:15:26.932Z,99.90
2017-10-08T00:17:54.033Z,99.90
2017-10-08T00:20:20.391Z,99.90
2017-10-08T00:22:46.721Z,99.90
2017-10-08T00:25:13.062Z,99.90
2017-10-08T00:27:39.416Z,99.90
2017-10-08T00:30:05.804Z,99.90
2017-10-08T00:32:32.912Z,99.90
2017-10-08T00:34:59.307Z,99.90
2017-10-08T00:37:25.669Z,99.90
2017-10-08T00:39:52.076Z,99.90
2017-10-08T00:42:18.486Z,99.90
2017-10-08T00:44:44.866Z,99.90
2017-10-08T00:47:11.932Z,99.90
2017-10-08T00:49:39.012Z,99.90
2017-10-08T00:52:05.390Z,99.90
2017-10-08T00:54:31.763Z,99.90
2017-10-08T00:56:58.195Z,99.90
2017-10-08T00:59:24.556Z,99.90
2017-10-08T01:01:51.655Z,99.90
2017-10-08T01:04:19.563Z,99.90
2017-10-08T01:06:47.420Z,99.90
2017-10-08T01:09:13.777Z,99.90
2017-10-08T01:11:40.173Z,99.90
2017-10-08T01:14:06.541Z,99.90
2017-10-08T01:16:32.890Z,99.90
2017-10-08T01:18:59.262Z,99.90
2017-10-08T01:21:27.113Z,99.90
2017-10-08T01:23:53.497Z,99.90
2017-10-08T01:26:19.906Z,99.90
2017-10-08T01:28:46.248Z,99.90
2017-10-08T01:31:12.634Z,99.90
2017-10-08T01:33:39.017Z,99.90
2017-10-08T01:36:05.412Z,99.90
2017-10-08T01:38:32.537Z,99.90
2017-10-08T01:40:58.987Z,99.90
2017-10-08T01:43:25.304Z,99.90
2017-10-08T01:45:51.697Z,99.90
2017-10-08T01:48:21.569Z,99.90
2017-10-08T01:50:47.910Z,99.90
2017-10-08T01:53:14.320Z,99.90
2017-10-08T01:55:41.465Z,99.90
2017-10-08T01:58:08.604Z,99.90
2017-10-08T02:00:34.958Z,99.90
2017-10-08T02:03:01.309Z,99.90
2017-10-08T02:05:27.685Z,99.90
2017-10-08T02:07:54.068Z,99.90
2017-10-08T02:10:20.453Z,99.90
2017-10-08T02:12:46.776Z,99.90
2017-10-08T02:15:13.131Z,99.90
2017-10-08T02:17:39.470Z,99.90
2017-10-08T02:20:05.878Z,99.90
2017-10-08T02:22:32.255Z,99.90
2017-10-08T02:24:58.690Z,99.90
2017-10-08T02:27:25.067Z,99.90
2017-10-08T02:29:51.476Z,99.90
2017-10-08T02:32:17.849Z,99.90
2017-10-08T02:34:44.208Z,99.90
2017-10-08T02:37:11.272Z,99.90
2017-10-08T02:39:37.592Z,99.90
2017-10-08T02:42:04.699Z,99.90
2017-10-08T02:44:31.016Z,99.90
2017-10-08T02:46:57.505Z,99.90
2017-10-08T02:49:23.866Z,99.90
2017-10-08T02:51:51.012Z,99.90
2017-10-08T02:54:17.341Z,99.90
2017-10-08T02:56:43.717Z,99.90
2017-10-08T02:59:10.044Z,99.90
2017-10-08T03:01:36.416Z,99.90
2017-10-08T03:04:03.267Z,99.90
2017-10-08T03:06:29.713Z,99.90
2017-10-08T03:08:56.077Z,99.90
2017-10-08T03:11:22.528Z,99.90
2017-10-08T03:13:49.586Z,99.90
2017-10-08T03:16:15.889Z,99.90
2017-10-08T03:18:42.228Z,99.90
2017-10-08T03:21:08.584Z,99.90
2017-10-08T03:23:34.962Z,99.90
2017-10-08T03:26:01.288Z,99.90
2017-10-08T03:28:28.377Z,99.90
2017-10-08T03:30:54.712Z,99.90
2017-10-08T03:33:21.098Z,99.90
2017-10-08T03:35:47.430Z,99.90
2017-10-08T03:38:13.796Z,99.90
2017-10-08T03:40:40.114Z,99.90
2017-10-08T03:43:06.455Z,99.90
2017-10-08T03:45:32.802Z,99.90
2017-10-08T03:47:59.122Z,99.90
2017-10-08T03:50:25.508Z,99.90
2017-10-08T03:52:51.848Z,99.90
2017-10-08T03:55:18.216Z,99.90
2017-10-08T03:57:44.553Z,99.90
2017-10-08T04:00:10.940Z,99.90
2017-10-08T04:02:37.269Z,99.90
2017-10-08T04:05:04.308Z,99.90
2017-10-08T04:07:31.398Z,99.90
2017-10-08T04:09:57.785Z,99.90
2017-10-08T04:12:24.141Z,99.90
2017-10-08T04:14:50.470Z,99.90
2017-10-08T04:17:16.821Z,99.90
2017-10-08T04:19:43.182Z,99.90
2017-10-08T04:22:09.562Z,99.90
2017-10-08T04:24:35.888Z,99.90
2017-10-08T04:27:02.248Z,99.90
2017-10-08T04:29:28.583Z,99.90
2017-10-08T04:31:54.934Z,99.90
2017-10-08T04:34:21.281Z,99.90
2017-10-08T04:36:47.668Z,99.90
2017-10-08T04:39:14.199Z,99.90
2017-10-08T04:41:40.525Z,99.90
2017-10-08T04:44:06.884Z,99.90
2017-10-08T04:46:33.245Z,99.90
2017-10-08T04:49:00.366Z,99.90
2017-10-08T04:51:26.708Z,99.90
2017-10-08T04:53:53.090Z,99.90
2017-10-08T04:56:19.492Z,99.90
2017-10-08T04:58:45.905Z,99.90
2017-10-08T05:01:12.256Z,99.90
2017-10-08T05:03:38.641Z,99.90
2017-10-08T05:06:05.042Z,99.90
2017-10-08T05:08:32.157Z,99.90
2017-10-08T05:10:59.268Z,99.90
2017-10-08T05:13:25.663Z,99.90
2017-10-08T05:15:52.850Z,99.90
2017-10-08T05:18:19.282Z,99.90
2017-10-08T05:20:45.733Z,99.90
2017-10-08T05:23:12.877Z,99.90
2017-10-08T05:25:39.283Z,99.90
2017-10-08T05:28:05.787Z,99.90
2017-10-08T05:30:32.224Z,99.90
2017-10-08T05:32:58.620Z,99.90
2017-10-08T05:35:25.065Z,99.90
2017-10-08T05:37:52.407Z,99.90
2017-10-08T05:40:18.898Z,99.90
2017-10-08T05:42:46.071Z,99.90
2017-10-08T05:45:13.205Z,99.90
2017-10-08T05:47:39.616Z,99.90
2017-10-08T05:50:06.037Z,99.90
2017-10-08T05:52:32.472Z,99.90
2017-10-08T05:54:59.617Z,99.90
2017-10-08T05:57:26.034Z,99.90
2017-10-08T05:59:52.443Z,99.90
2017-10-08T06:02:18.850Z,99.90
2017-10-08T06:04:45.326Z,99.90
2017-10-08T06:07:11.659Z,99.90
2017-10-08T06:09:38.073Z,99.90
2017-10-08T06:12:04.497Z,99.90
2017-10-08T06:14:31.678Z,99.90
2017-10-08T06:16:58.812Z,99.90
2017-10-08T06:19:25.949Z,99.90
2017-10-08T06:21:52.360Z,99.90
2017-10-08T06:24:19.479Z,99.90
2017-10-08T06:26:46.645Z,99.90
2017-10-08T06:29:13.119Z,99.90
2017-10-08T06:31:39.524Z,99.90
2017-10-08T06:34:05.897Z,99.90
2017-10-08T06:36:32.276Z,99.90
2017-10-08T06:38:59.411Z,99.90
2017-10-08T06:41:25.788Z,99.90
2017-10-08T06:43:52.906Z,99.90
2017-10-08T06:46:20.073Z,99.90
2017-10-08T06:48:46.489Z,99.90
2017-10-08T06:51:12.897Z,99.90
2017-10-08T06:53:40.018Z,99.90
2017-10-08T06:56:06.464Z,99.90
2017-10-08T06:58:32.837Z,99.90
2017-10-08T07:00:59.319Z,99.90
2017-10-08T07:03:25.727Z,99.90
2017-10-08T07:05:52.108Z,99.90
2017-10-08T07:08:19.270Z,99.90
2017-10-08T07:10:46.384Z,99.90
2017-10-08T07:13:12.821Z,99.90
2017-10-08T07:15:39.212Z,99.90
2017-10-08T07:18:05.631Z,99.90
2017-10-08T07:20:32.013Z,99.90
2017-10-08T07:22:58.444Z,99.90
2017-10-08T07:25:24.885Z,99.90
2017-10-08T07:27:51.993Z,99.90
2017-10-08T07:30:18.443Z,99.90
2017-10-08T07:32:44.872Z,99.90
2017-10-08T07:35:11.283Z,99.90
2017-10-08T07:37:39.123Z,99.90
2017-10-08T07:40:05.562Z,99.90
2017-10-08T07:42:31.921Z,99.90
2017-10-08T07:44:58.328Z,99.90
2017-10-08T07:47:24.732Z,99.90
2017-10-08T07:49:51.150Z,99.90
2017-10-08T07:52:17.539Z,99.90
2017-10-08T07:54:43.942Z,99.90
2017-10-08T07:57:10.372Z,99.90
2017-10-08T07:59:37.524Z,99.90
2017-10-08T08:02:04.665Z,99.90
2017-10-08T08:04:31.126Z,99.90
2017-10-08T08:06:57.598Z,99.90
2017-10-08T08:09:24.815Z,99.90
2017-10-08T08:11:51.224Z,99.90
2017-10-08T08:14:17.633Z,99.90
2017-10-08T08:16:44.070Z,99.90
2017-10-08T08:19:10.477Z,99.90
2017-10-08T08:21:36.895Z,99.90
2017-10-08T08:24:03.590Z,99.90
2017-10-08T08:26:30.022Z,99.90
2017-10-08T08:28:56.430Z,99.90
2017-10-08T08:31:22.891Z,99.90
2017-10-08T08:33:49.382Z,99.90
2017-10-08T08:36:15.885Z,99.90
2017-10-08T08:38:43.520Z,99.90
2017-10-08T08:41:11.377Z,99.90
2017-10-08T08:43:37.777Z,99.90
2017-10-08T08:46:04.215Z,99.90
2017-10-08T08:48:30.658Z,99.90
2017-10-08T08:50:57.030Z,99.90
2017-10-08T08:53:23.449Z,99.90
2017-10-08T08:55:49.828Z,99.90
2017-10-08T08:58:17.017Z,99.90
2017-10-08T09:00:43.543Z,99.90
2017-10-08T09:03:10.672Z,99.90
2017-10-08T09:05:37.151Z,99.90
2017-10-08T09:08:04.285Z,99.90
2017-10-08T09:10:30.752Z,99.90
2017-10-08T09:12:57.176Z,99.90
2017-10-08T09:15:23.664Z,99.90
2017-10-08T09:17:50.053Z,99.90
2017-10-08T09:20:16.440Z,99.90
2017-10-08T09:22:42.861Z,99.90
2017-10-08T09:25:10.018Z,96.20
2017-10-08T09:27:36.429Z,96.10
2017-10-08T09:30:03.211Z,93.30
2017-10-08T09:32:29.674Z,94.20
2017-10-08T09:34:56.084Z,95.20
2017-10-08T09:37:22.461Z,96.90
2017-10-08T09:39:48.907Z,97.60
2017-10-08T09:42:16.110Z,98.80
2017-10-08T09:44:43.250Z,99.10
2017-10-08T09:47:09.672Z,98.70
2017-10-08T09:49:36.097Z,99.30
2017-10-08T09:52:02.733Z,99.70
2017-10-08T09:54:29.901Z,99.30
2017-10-08T09:56:56.989Z,99.80
2017-10-08T09:59:23.424Z,99.80
2017-10-08T10:01:49.777Z,99.80
2017-10-08T10:04:16.908Z,99.90
2017-10-08T10:06:43.408Z,99.90
2017-10-08T10:09:09.819Z,99.90
2017-10-08T10:11:36.300Z,99.10
2017-10-08T10:14:03.605Z,99.50
2017-10-08T10:16:30.730Z,99.70
2017-10-08T10:18:57.602Z,99.70
2017-10-08T10:21:24.029Z,98.40
2017-10-08T10:23:50.414Z,97.10
2017-10-08T10:26:17.573Z,96.10
2017-10-08T10:28:44.010Z,96.10
2017-10-08T10:31:11.244Z,94.90
2017-10-08T10:33:38.300Z,95.30
2017-10-08T10:36:04.701Z,95.20
2017-10-08T10:38:31.195Z,96.70
2017-10-08T10:40:57.851Z,97.00
2017-10-08T10:43:24.243Z,96.90
2017-10-08T10:45:50.718Z,96.60
2017-10-08T10:48:17.916Z,95.50
2017-10-08T10:50:45.045Z,95.70
2017-10-08T10:53:11.449Z,95.70
2017-10-08T10:55:37.805Z,95.40
2017-10-08T10:58:04.177Z,95.20
2017-10-08T11:00:30.508Z,91.20
2017-10-08T11:02:57.844Z,94.80
2017-10-08T11:05:24.962Z,93.80
2017-10-08T11:07:51.332Z,93.80
2017-10-08T11:10:17.670Z,93.20
2017-10-08T11:12:44.809Z,93.10
2017-10-08T11:15:11.956Z,92.90
2017-10-08T11:17:38.302Z,93.10
2017-10-08T11:20:04.717Z,93.60
2017-10-08T11:22:31.114Z,93.10
2017-10-08T11:24:57.671Z,92.90
2017-10-08T11:27:24.076Z,92.40
2017-10-08T11:29:50.441Z,92.70
2017-10-08T11:32:16.882Z,93.80
2017-10-08T11:34:43.299Z,94.20
2017-10-08T11:37:10.444Z,94.40
2017-10-08T11:39:36.835Z,94.40
2017-10-08T11:42:03.358Z,95.20
2017-10-08T11:44:29.787Z,95.20
2017-10-08T11:46:56.242Z,95.20
2017-10-08T11:49:22.670Z,95.30
2017-10-08T11:51:49.152Z,95.80
2017-10-08T11:54:16.341Z,94.00
2017-10-08T11:56:42.765Z,94.00
2017-10-08T11:59:09.235Z,92.80
2017-10-08T12:01:35.648Z,92.00
2017-10-08T12:04:02.051Z,87.80
2017-10-08T12:06:28.469Z,88.20
2017-10-08T12:08:55.583Z,90.70
2017-10-08T12:11:21.920Z,90.70
2017-10-08T12:13:48.348Z,91.70
2017-10-08T12:16:15.468Z,93.20
2017-10-08T12:18:41.845Z,93.20
2017-10-08T12:21:08.209Z,94.20
2017-10-08T12:23:34.662Z,93.70
2017-10-08T12:26:04.009Z,93.20
2017-10-08T12:28:30.406Z,93.90
2017-10-08T12:30:56.752Z,93.70
2017-10-08T12:33:23.157Z,93.30
2017-10-08T12:35:51.465Z,93.00
2017-10-08T12:38:17.821Z,93.40
2017-10-08T12:40:45.016Z,93.20
2017-10-08T12:43:11.398Z,93.20
2017-10-08T12:45:37.942Z,93.20
2017-10-08T12:48:05.044Z,93.80
2017-10-08T12:50:31.408Z,93.80
2017-10-08T12:53:06.119Z,94.10
2017-10-08T12:55:33.262Z,93.20
2017-10-08T12:57:59.707Z,93.20
2017-10-08T13:00:26.131Z,93.30
2017-10-08T13:02:52.520Z,93.50
2017-10-08T13:05:18.924Z,93.70
2017-10-08T13:07:45.351Z,92.30
2017-10-08T13:10:11.719Z,91.80
2017-10-08T13:12:38.152Z,92.00
2017-10-08T13:15:05.322Z,90.00
2017-10-08T13:17:31.740Z,90.10
2017-10-08T13:19:58.220Z,89.70
2017-10-08T13:22:25.394Z,87.10
2017-10-08T13:24:51.810Z,85.90
2017-10-08T13:27:18.174Z,83.80
2017-10-08T13:29:44.556Z,82.60
2017-10-08T13:32:11.649Z,83.50
2017-10-08T13:34:38.049Z,83.50
2017-10-08T13:37:04.455Z,83.20
2017-10-08T13:39:30.826Z,83.00
2017-10-08T13:41:57.241Z,82.20
2017-10-08T13:44:23.619Z,82.40
2017-10-08T13:46:50.028Z,82.40
2017-10-08T13:49:16.431Z,83.80
2017-10-08T13:51:42.819Z,84.00
2017-10-08T13:54:09.242Z,85.50
2017-10-08T13:56:35.676Z,87.30
2017-10-08T13:59:02.369Z,88.50
2017-10-08T14:01:28.804Z,89.10
2017-10-08T14:03:55.908Z,90.40
2017-10-08T14:06:22.422Z,90.40
2017-10-08T14:08:49.594Z,90.40
2017-10-08T14:11:15.975Z,90.40
2017-10-08T14:13:43.130Z,91.30
2017-10-08T14:16:09.530Z,91.20
2017-10-08T14:18:36.684Z,90.60
2017-10-08T14:21:03.822Z,91.20
2017-10-08T14:23:32.097Z,91.20
2017-10-08T14:25:59.241Z,91.70
2017-10-08T14:28:25.654Z,91.70
2017-10-08T14:30:53.346Z,92.50
2017-10-08T14:33:19.796Z,92.50
2017-10-08T14:35:46.219Z,92.80
2017-10-08T14:38:12.623Z,93.50
2017-10-08T14:40:39.021Z,93.80
2017-10-08T14:43:05.495Z,94.20
2017-10-08T14:45:31.901Z,94.20
2017-10-08T14:47:58.277Z,94.80
2017-10-08T14:50:25.720Z,95.30
2017-10-08T14:52:52.196Z,95.30
2017-10-08T14:55:18.604Z,95.20
2017-10-08T14:57:44.971Z,95.10
2017-10-08T15:00:11.425Z,95.50
2017-10-08T15:02:37.792Z,95.50
2017-10-08T15:05:04.508Z,95.50
2017-10-08T15:07:32.581Z,95.70
2017-10-08T15:09:59.003Z,95.70
2017-10-08T15:12:25.399Z,95.70
2017-10-08T15:14:52.097Z,95.90
2017-10-08T15:17:18.518Z,95.80
2017-10-08T15:19:45.709Z,95.40
2017-10-08T15:22:12.883Z,94.70
2017-10-08T15:24:39.268Z,94.70
2017-10-08T15:27:05.668Z,94.40
2017-10-08T15:29:32.377Z,92.70
2017-10-08T15:31:58.755Z,92.00
2017-10-08T15:34:25.909Z,92.40
2017-10-08T15:36:52.298Z,92.40
2017-10-08T15:39:18.690Z,91.40
2017-10-08T15:41:47.217Z,90.70
2017-10-08T15:44:13.584Z,90.70
2017-10-08T15:46:40.812Z,90.90
2017-10-08T15:49:07.600Z,91.10
2017-10-08T15:51:34.236Z,91.80
2017-10-08T15:54:01.401Z,92.80
2017-10-08T15:56:28.510Z,93.60
2017-10-08T15:58:55.779Z,93.70
2017-10-08T16:01:23.475Z,94.90
2017-10-08T16:03:50.746Z,95.40
2017-10-08T16:06:17.300Z,95.70
2017-10-08T16:08:44.024Z,96.00
2017-10-08T16:11:10.439Z,96.50
2017-10-08T16:13:36.960Z,96.60
2017-10-08T16:16:04.255Z,97.10
2017-10-08T16:18:32.721Z,97.10
2017-10-08T16:20:59.224Z,97.00
2017-10-08T16:23:27.171Z,97.00
2017-10-08T16:25:53.965Z,97.10
2017-10-08T16:28:22.114Z,97.70
2017-10-08T16:30:49.208Z,97.70
2017-10-08T16:33:15.685Z,97.90
2017-10-08T16:35:42.692Z,98.10
2017-10-08T16:38:09.300Z,98.30
2017-10-08T16:40:35.984Z,98.40
2017-10-08T16:43:03.227Z,98.40
2017-10-08T16:45:29.662Z,98.50
2017-10-08T16:47:56.155Z,98.50
2017-10-08T16:50:23.302Z,98.80
2017-10-08T16:52:49.696Z,98.80
2017-10-08T16:55:16.322Z,98.90
2017-10-08T16:57:42.721Z,99.00
2017-10-08T17:00:11.912Z,99.60
2017-10-08T17:02:38.293Z,99.60
2017-10-08T17:05:04.736Z,99.80
2017-10-08T17:07:31.259Z,99.80
2017-10-08T17:09:57.915Z,99.80
2017-10-08T17:12:25.114Z,99.90
2017-10-08T17:14:51.565Z,99.90
2017-10-08T17:17:18.115Z,99.90
2017-10-08T17:19:44.562Z,99.90
2017-10-08T17:22:11.120Z,99.90
2017-10-08T17:24:38.328Z,99.90
2017-10-08T17:27:06.685Z,99.90
2017-10-08T17:29:33.057Z,99.90
2017-10-08T17:31:59.416Z,99.90
2017-10-08T17:34:25.774Z,99.90
2017-10-08T17:36:52.140Z,99.90
2017-10-08T17:39:18.584Z,99.90
2017-10-08T17:41:44.922Z,99.90
2017-10-08T17:44:11.364Z,99.90
2017-10-08T17:46:37.696Z,99.90
2017-10-08T17:49:04.082Z,99.90
2017-10-08T17:51:30.454Z,99.90
2017-10-08T17:53:56.801Z,99.90
2017-10-08T17:56:23.140Z,99.90
2017-10-08T17:58:50.240Z,99.90
2017-10-08T18:01:16.632Z,99.90
2017-10-08T18:03:44.536Z,99.90
2017-10-08T18:06:11.667Z,99.90
2017-10-08T18:08:37.984Z,99.90
2017-10-08T18:11:04.349Z,99.90
2017-10-08T18:13:30.705Z,99.90
2017-10-08T18:15:57.061Z,99.90
2017-10-08T18:18:24.172Z,99.90
2017-10-08T18:20:50.593Z,99.90
2017-10-08T18:23:17.686Z,99.90
2017-10-08T18:25:44.109Z,99.90
2017-10-08T18:28:11.167Z,99.90
2017-10-08T18:30:37.608Z,99.90
2017-10-08T18:33:04.693Z,99.90
2017-10-08T18:35:31.061Z,99.90
2017-10-08T18:37:57.450Z,99.90
2017-10-08T18:40:23.808Z,99.90
2017-10-08T18:42:50.200Z,99.90
2017-10-08T18:45:16.663Z,99.90
2017-10-08T18:47:43.005Z,99.90
2017-10-08T18:50:10.870Z,99.90
2017-10-08T18:52:37.285Z,99.90
2017-10-08T18:55:04.422Z,99.90
2017-10-08T18:57:30.801Z,99.90
2017-10-08T18:59:57.173Z,99.90
2017-10-08T19:02:24.272Z,99.90
2017-10-08T19:04:50.605Z,99.90
2017-10-08T19:07:16.991Z,99.90
2017-10-08T19:09:43.337Z,99.90
2017-10-08T19:12:10.177Z,99.90
2017-10-08T19:14:36.548Z,99.90
2017-10-08T19:17:04.349Z,99.90
2017-10-08T19:19:30.735Z,99.90
2017-10-08T19:21:57.100Z,99.90
2017-10-08T19:24:24.941Z,99.90
2017-10-08T19:26:52.073Z,99.90
2017-10-08T19:29:19.200Z,99.90
2017-10-08T19:31:45.537Z,99.90
2017-10-08T19:34:11.883Z,99.90
2017-10-08T19:36:39.025Z,99.90
2017-10-08T19:39:05.382Z,99.90
2017-10-08T19:41:31.743Z,99.90
2017-10-08T19:43:59.553Z,99.90
2017-10-08T19:46:25.936Z,99.90
2017-10-08T19:48:52.279Z,99.90
2017-10-08T19:51:20.159Z,99.90
2017-10-08T19:53:46.530Z,99.90
2017-10-08T19:56:13.644Z,99.90
2017-10-08T19:58:39.989Z,99.90
2017-10-08T20:01:06.349Z,99.90
2017-10-08T20:03:32.696Z,99.90
2017-10-08T20:05:59.125Z,99.90
2017-10-08T20:08:25.474Z,99.90
2017-10-08T20:10:51.827Z,99.90
2017-10-08T20:13:18.464Z,99.90
2017-10-08T20:15:44.791Z,99.90
2017-10-08T20:18:11.160Z,99.90
2017-10-08T20:20:37.505Z,99.90
2017-10-08T20:23:03.953Z,99.90
2017-10-08T20:25:31.053Z,99.90
2017-10-08T20:27:57.456Z,99.90
2017-10-08T20:30:25.294Z,99.90
2017-10-08T20:32:51.689Z,99.90
2017-10-08T20:35:18.291Z,99.90
2017-10-08T20:37:45.400Z,99.90
2017-10-08T20:40:11.784Z,99.90
2017-10-08T20:42:38.892Z,99.90
2017-10-08T20:45:05.388Z,99.90
2017-10-08T20:47:31.725Z,99.90
2017-10-08T20:49:58.106Z,99.90
2017-10-08T20:52:25.269Z,99.90
2017-10-08T20:54:51.609Z,99.90
2017-10-08T20:57:18.277Z,99.90
2017-10-08T20:59:44.688Z,99.90
2017-10-08T21:02:11.060Z,99.90
2017-10-08T21:04:37.446Z,99.90
2017-10-08T21:07:03.838Z,99.90
2017-10-08T21:09:30.223Z,99.90
2017-10-08T21:11:57.337Z,99.90
2017-10-08T21:14:23.735Z,99.90
2017-10-08T21:16:50.121Z,99.90
2017-10-08T21:19:16.501Z,99.90
2017-10-08T21:21:42.829Z,99.90
2017-10-08T21:24:09.185Z,99.90
2017-10-08T21:26:35.555Z,99.90
2017-10-08T21:29:02.679Z,99.90
2017-10-08T21:31:29.055Z,99.90
2017-10-08T21:33:56.166Z,99.90
2017-10-08T21:36:22.534Z,99.90
2017-10-08T21:38:49.640Z,99.90
2017-10-08T21:41:16.014Z,99.90
2017-10-08T21:43:42.381Z,99.90
2017-10-08T21:46:08.772Z,99.90
2017-10-08T21:48:35.284Z,99.90
2017-10-08T21:51:01.644Z,99.90
2017-10-08T21:53:28.727Z,99.90
2017-10-08T21:55:55.078Z,99.90
2017-10-08T21:58:21.429Z,99.90
2017-10-08T22:00:47.757Z,99.90
2017-10-08T22:03:14.118Z,99.90
2017-10-08T22:05:40.460Z,99.90
2017-10-08T22:08:06.845Z,99.90
2017-10-08T22:10:33.181Z,99.90
2017-10-08T22:12:59.531Z,99.90
2017-10-08T22:15:26.593Z,99.90
2017-10-08T22:17:52.928Z,99.90
2017-10-08T22:20:19.244Z,99.90
2017-10-08T22:22:45.598Z,99.90
2017-10-08T22:25:11.936Z,99.90
2017-10-08T22:27:38.289Z,99.90
2017-10-08T22:30:04.656Z,99.90
2017-10-08T22:32:31.717Z,99.90
2017-10-08T22:34:58.063Z,99.90
2017-10-08T22:37:25.142Z,99.90
2017-10-08T22:39:51.482Z,99.90
2017-10-08T22:42:18.865Z,99.90
2017-10-08T22:44:45.213Z,99.90
2017-10-08T22:47:11.647Z,99.90
2017-10-08T22:49:37.997Z,99.90
2017-10-08T22:52:04.361Z,99.90
2017-10-08T22:54:31.488Z,99.90
2017-10-08T22:56:57.830Z,99.90
2017-10-08T22:59:24.888Z,99.90
2017-10-08T23:01:51.250Z,99.90
2017-10-08T23:04:17.604Z,99.90
2017-10-08T23:06:44.286Z,99.90
2017-10-08T23:09:10.597Z,99.90
2017-10-08T23:11:36.954Z,99.90
2017-10-08T23:14:03.262Z,99.90
2017-10-08T23:16:29.621Z,99.90
2017-10-08T23:18:55.966Z,99.90
2017-10-08T23:21:22.331Z,99.90
2017-10-08T23:23:48.644Z,99.90
2017-10-08T23:26:14.972Z,99.90
2017-10-08T23:28:41.308Z,99.90
2017-10-08T23:31:08.373Z,99.90
2017-10-08T23:33:34.720Z,99.90
2017-10-08T23:36:01.806Z,99.90
2017-10-08T23:38:28.169Z,99.90
2017-10-08T23:40:55.981Z,99.90
2017-10-08T23:43:23.060Z,99.90
2017-10-08T23:45:49.364Z,99.90
2017-10-08T23:48:15.736Z,99.90
2017-10-08T23:50:42.056Z,99.90
2017-10-08T23:53:08.372Z,99.90
2017-10-08T23:55:34.748Z,99.90
2017-10-08T23:58:01.049Z,99.90
